Time,TemperatureF,DewpointF,PressureIn,WindDirection,WindDirectionDegrees,WindSpeedMPH,WindSpeedGustMPH,Humidity,HourlyPrecipIn,Conditions,Clouds,dailyrainin,SoftwareType,DateUTC
2013-02-13 00:02:00,31.0,26.0,29.83,West,264,4.0,-999.0,80,-99.99,,,-99.99,,2013-02-13 05:02:00,
2013-02-13 00:12:00,30.0,25.0,29.83,West,264,3.0,-999.0,81,-99.99,,,-99.99,,2013-02-13 05:12:00,
2013-02-13 00:22:00,30.0,25.0,29.83,West,264,3.0,-999.0,81,-99.99,,,-99.99,,2013-02-13 05:22:00,
2013-02-13 00:32:00,28.0,24.0,29.83,West,264,4.0,-999.0,84,-99.99,,,-99.99,,2013-02-13 05:32:00,
2013-02-13 00:42:00,28.0,24.0,29.83,West,264,4.0,-999.0,84,-99.99,,,-99.99,,2013-02-13 05:42:00,
2013-02-13 00:52:00,28.0,25.0,29.83,West,264,3.0,-999.0,87,-99.99,,,-99.99,,2013-02-13 05:52:00,
2013-02-13 01:02:00,27.0,24.0,29.83,West,264,2.0,-999.0,87,-99.99,,,-99.99,,2013-02-13 06:02:00,
2013-02-13 01:11:00,27.0,24.0,29.83,West,264,3.0,-999.0,88,-99.99,,,-99.99,,2013-02-13 06:11:00,
2013-02-13 01:21:00,27.0,24.0,29.83,West,264,3.0,-999.0,88,-99.99,,,-99.99,,2013-02-13 06:21:00,
2013-02-13 01:32:00,27.0,24.0,29.83,West,264,3.0,-999.0,89,-99.99,,,-99.99,,2013-02-13 06:32:00,
2013-02-13 01:42:00,27.0,24.0,29.83,West,264,4.0,-999.0,88,-99.99,,,-99.99,,2013-02-13 06:42:00,
2013-02-13 01:52:00,27.0,24.0,29.83,West,264,4.0,-999.0,88,-99.99,,,-99.99,,2013-02-13 06:52:00,
2013-02-13 02:02:00,27.0,24.0,29.84,West,264,3.0,-999.0,89,-99.99,,,-99.99,,2013-02-13 07:02:00,
2013-02-13 02:11:00,26.0,23.0,29.84,West,264,4.0,-999.0,88,-99.99,,,-99.99,,2013-02-13 07:11:00,
2013-02-13 02:22:00,26.0,23.0,29.84,West,264,4.0,-999.0,88,-99.99,,,-99.99,,2013-02-13 07:22:00,
2013-02-13 02:32:00,26.0,23.0,29.84,West,264,4.0,-999.0,89,-99.99,,,-99.99,,2013-02-13 07:32:00,
2013-02-13 02:42:00,26.0,23.0,29.84,West,264,4.0,-999.0,89,-99.99,,,-99.99,,2013-02-13 07:42:00,
2013-02-13 02:52:00,25.0,22.0,29.84,West,264,4.0,-999.0,90,-99.99,,,-99.99,,2013-02-13 07:52:00,
2013-02-13 03:01:00,26.0,23.0,29.85,West,264,4.0,-999.0,90,-99.99,,,-99.99,,2013-02-13 08:01:00,
2013-02-13 03:11:00,26.0,23.0,29.85,West,264,4.0,-999.0,90,-99.99,,,-99.99,,2013-02-13 08:11:00,
2013-02-13 03:21:00,27.0,24.0,29.84,West,266,5.0,-999.0,90,-99.99,,,-99.99,,2013-02-13 08:21:00,
2013-02-13 03:32:00,28.0,25.0,29.84,West,275,5.0,-999.0,88,-99.99,,,-99.99,,2013-02-13 08:32:00,
2013-02-13 03:43:00,28.0,25.0,29.84,West,275,5.0,-999.0,88,-99.99,,,-99.99,,2013-02-13 08:43:00,
2013-02-13 03:52:00,27.0,24.0,29.84,West,275,5.0,-999.0,87,-99.99,,,-99.99,,2013-02-13 08:52:00,
2013-02-13 04:02:00,27.0,23.0,29.83,West,275,5.0,-999.0,86,-99.99,,,-99.99,,2013-02-13 09:02:00,
2013-02-13 04:11:00,27.0,23.0,29.83,West,275,5.0,-999.0,86,-99.99,,,-99.99,,2013-02-13 09:11:00,
2013-02-13 04:21:00,27.0,23.0,29.83,West,275,4.0,-999.0,86,-99.99,,,-99.99,,2013-02-13 09:21:00,
2013-02-13 04:31:00,26.0,23.0,29.83,West,275,5.0,-999.0,87,-99.99,,,-99.99,,2013-02-13 09:31:00,
2013-02-13 04:42:00,26.0,23.0,29.83,West,275,5.0,-999.0,88,-99.99,,,-99.99,,2013-02-13 09:42:00,
2013-02-13 04:52:00,26.0,23.0,29.83,West,275,5.0,-999.0,88,-99.99,,,-99.99,,2013-02-13 09:52:00,
2013-02-13 05:01:00,29.0,25.0,29.81,NW,311,8.0,-999.0,86,-99.99,,,-99.99,,2013-02-13 10:01:00,
2013-02-13 05:11:00,30.0,25.0,29.81,NW,314,6.0,-999.0,82,-99.99,,,-99.99,,2013-02-13 10:11:00,
2013-02-13 05:21:00,30.0,25.0,29.81,NW,314,6.0,-999.0,82,-99.99,,,-99.99,,2013-02-13 10:21:00,
2013-02-13 05:32:00,29.0,25.0,29.81,NW,316,3.0,-999.0,83,-99.99,,,-99.99,,2013-02-13 10:32:00,
2013-02-13 05:42:00,27.0,23.0,29.81,NW,316,3.0,-999.0,86,-99.99,,,-99.99,,2013-02-13 10:42:00,
2013-02-13 05:52:00,27.0,23.0,29.81,NW,316,3.0,-999.0,86,-99.99,,,-99.99,,2013-02-13 10:52:00,
2013-02-13 06:01:00,26.0,23.0,29.81,NW,316,3.0,-999.0,88,-99.99,,,-99.99,,2013-02-13 11:01:00,
2013-02-13 06:11:00,26.0,23.0,29.81,NW,316,3.0,-999.0,88,-99.99,,,-99.99,,2013-02-13 11:11:00,
2013-02-13 06:22:00,25.0,22.0,29.82,NW,316,3.0,-999.0,89,-99.99,,,-99.99,,2013-02-13 11:22:00,
2013-02-13 06:42:00,24.0,22.0,29.83,NW,316,2.0,-999.0,90,-99.99,,,-99.99,,2013-02-13 11:42:00,
2013-02-13 06:52:00,24.0,22.0,29.83,NW,316,2.0,-999.0,90,-99.99,,,-99.99,,2013-02-13 11:52:00,
2013-02-13 07:02:00,24.0,22.0,29.83,NW,316,3.0,-999.0,91,-99.99,,,-99.99,,2013-02-13 12:02:00,
2013-02-13 07:11:00,24.0,22.0,29.83,NW,316,3.0,-999.0,92,-99.99,,,-99.99,,2013-02-13 12:11:00,
2013-02-13 07:22:00,24.0,22.0,29.83,NW,316,3.0,-999.0,92,-99.99,,,-99.99,,2013-02-13 12:22:00,
2013-02-13 07:32:00,24.0,22.0,29.83,NW,316,3.0,-999.0,92,-99.99,,,-99.99,,2013-02-13 12:32:00,
2013-02-13 07:42:00,27.0,25.0,29.83,NW,316,3.0,-999.0,92,-99.99,,,-99.99,,2013-02-13 12:42:00,
2013-02-13 07:52:00,27.0,25.0,29.83,NW,316,3.0,-999.0,92,-99.99,,,-99.99,,2013-02-13 12:52:00,
2013-02-13 08:02:00,29.0,27.0,29.84,NW,316,3.0,-999.0,91,-99.99,,,-99.99,,2013-02-13 13:02:00,
2013-02-13 08:11:00,29.0,27.0,29.84,NW,316,3.0,-999.0,91,-99.99,,,-99.99,,2013-02-13 13:11:00,
2013-02-13 08:21:00,30.0,27.0,29.84,NW,316,3.0,-999.0,89,-99.99,,,-99.99,,2013-02-13 13:21:00,
2013-02-13 08:32:00,32.0,28.0,29.84,NW,316,2.0,-999.0,86,-99.99,,,-99.99,,2013-02-13 13:32:00,
2013-02-13 08:42:00,33.0,28.0,29.84,NW,316,2.0,-999.0,82,-99.99,,,-99.99,,2013-02-13 13:42:00,
2013-02-13 08:52:00,33.0,28.0,29.84,NW,316,2.0,-999.0,82,-99.99,,,-99.99,,2013-02-13 13:52:00,
2013-02-13 09:01:00,35.0,29.0,29.83,NW,316,3.0,-999.0,77,-99.99,,,-99.99,,2013-02-13 14:01:00,
2013-02-13 09:11:00,35.0,29.0,29.83,NW,316,3.0,-999.0,77,-99.99,,,-99.99,,2013-02-13 14:11:00,
2013-02-13 09:21:00,36.0,27.0,29.82,NNW,330,3.0,-999.0,69,-99.99,,,-99.99,,2013-02-13 14:21:00,
2013-02-13 09:32:00,37.0,26.0,29.81,NNW,335,4.0,-999.0,64,-99.99,,,-99.99,,2013-02-13 14:32:00,
2013-02-13 09:42:00,36.0,25.0,29.81,NW,319,5.0,-999.0,63,-99.99,,,-99.99,,2013-02-13 14:42:00,
2013-02-13 09:52:00,36.0,25.0,29.81,NW,319,5.0,-999.0,63,-99.99,,,-99.99,,2013-02-13 14:52:00,
2013-02-13 10:01:00,37.0,25.0,29.80,North,11,4.0,-999.0,61,-99.99,,,-99.99,,2013-02-13 15:01:00,
2013-02-13 10:11:00,37.0,25.0,29.80,North,11,4.0,-999.0,61,-99.99,,,-99.99,,2013-02-13 15:11:00,
2013-02-13 10:21:00,37.0,25.0,29.80,North,11,4.0,-999.0,61,-99.99,,,-99.99,,2013-02-13 15:21:00,
2013-02-13 10:32:00,38.0,25.0,29.80,NE,35,6.0,-999.0,59,-99.99,,,-99.99,,2013-02-13 15:32:00,
2013-02-13 10:42:00,38.0,25.0,29.80,NE,35,6.0,-999.0,59,-99.99,,,-99.99,,2013-02-13 15:42:00,
2013-02-13 10:52:00,38.0,25.0,29.80,North,359,5.0,-999.0,59,-99.99,,,-99.99,,2013-02-13 15:52:00,
2013-02-13 11:02:00,38.0,25.0,29.80,NE,37,4.0,-999.0,58,-99.99,,,-99.99,,2013-02-13 16:02:00,
2013-02-13 11:11:00,38.0,25.0,29.80,NE,37,4.0,-999.0,58,-99.99,,,-99.99,,2013-02-13 16:11:00,
2013-02-13 11:21:00,38.0,25.0,29.80,NE,37,4.0,-999.0,58,-99.99,,,-99.99,,2013-02-13 16:21:00,
2013-02-13 11:32:00,39.0,25.0,29.81,SW,215,2.0,-999.0,57,-99.99,,,-99.99,,2013-02-13 16:32:00,
2013-02-13 11:42:00,39.0,25.0,29.81,SW,215,2.0,-999.0,57,-99.99,,,-99.99,,2013-02-13 16:42:00,
2013-02-13 11:52:00,39.0,26.0,29.81,South,185,6.0,-999.0,59,-99.99,,,-99.99,,2013-02-13 16:52:00,
2013-02-13 12:02:00,39.0,26.0,29.81,South,185,6.0,-999.0,59,-99.99,,,-99.99,,2013-02-13 17:02:00,
2013-02-13 12:11:00,39.0,26.0,29.81,South,185,6.0,-999.0,59,-99.99,,,-99.99,,2013-02-13 17:11:00,
2013-02-13 12:21:00,39.0,26.0,29.80,SSW,209,6.0,-999.0,60,-99.99,,,-99.99,,2013-02-13 17:21:00,
2013-02-13 12:32:00,38.0,26.0,29.78,SSW,208,8.0,-999.0,62,-99.99,,,-99.99,,2013-02-13 17:32:00,
2013-02-13 12:42:00,38.0,26.0,29.78,SSW,208,8.0,-999.0,62,-99.99,,,-99.99,,2013-02-13 17:42:00,
2013-02-13 12:52:00,39.0,27.0,29.78,SSW,204,8.0,-999.0,62,-99.99,,,-99.99,,2013-02-13 17:52:00,
2013-02-13 13:02:00,38.0,25.0,29.77,SSW,207,7.0,-999.0,59,-99.99,,,-99.99,,2013-02-13 18:02:00,
2013-02-13 13:11:00,38.0,25.0,29.77,SSW,207,7.0,-999.0,59,-99.99,,,-99.99,,2013-02-13 18:11:00,
2013-02-13 13:23:00,38.0,25.0,29.76,SSW,195,8.0,-999.0,59,-99.99,,,-99.99,,2013-02-13 18:23:00,
2013-02-13 13:32:00,38.0,25.0,29.76,SSW,211,8.0,-999.0,59,-99.99,,,-99.99,,2013-02-13 18:32:00,
2013-02-13 13:42:00,38.0,25.0,29.76,SSW,211,8.0,-999.0,59,-99.99,,,-99.99,,2013-02-13 18:42:00,
2013-02-13 13:52:00,38.0,25.0,29.75,SW,214,7.0,-999.0,59,-99.99,,,-99.99,,2013-02-13 18:52:00,
2013-02-13 14:01:00,38.0,26.0,29.75,SW,215,6.0,-999.0,61,-99.99,,,-99.99,,2013-02-13 19:01:00,
2013-02-13 14:11:00,38.0,25.0,29.73,SSW,205,5.0,-999.0,60,-99.99,,,-99.99,,2013-02-13 19:11:00,
2013-02-13 14:21:00,38.0,25.0,29.73,SSW,205,5.0,-999.0,60,-99.99,,,-99.99,,2013-02-13 19:21:00,
2013-02-13 14:32:00,39.0,27.0,29.72,South,182,3.0,-999.0,62,-99.99,,,-99.99,,2013-02-13 19:32:00,
2013-02-13 14:42:00,39.0,27.0,29.72,South,182,3.0,-999.0,62,-99.99,,,-99.99,,2013-02-13 19:42:00,
2013-02-13 14:52:00,38.0,26.0,29.70,South,184,4.0,-999.0,62,-99.99,,,-99.99,,2013-02-13 19:52:00,
2013-02-13 15:02:00,38.0,26.0,29.70,South,186,3.0,-999.0,61,-99.99,,,-99.99,,2013-02-13 20:02:00,
2013-02-13 15:11:00,38.0,26.0,29.71,SSE,148,0.0,-999.0,62,-99.99,,,-99.99,,2013-02-13 20:11:00,
2013-02-13 15:21:00,38.0,26.0,29.71,SSE,148,0.0,-999.0,62,-99.99,,,-99.99,,2013-02-13 20:21:00,
2013-02-13 15:32:00,38.0,27.0,29.72,SSW,198,4.0,-999.0,63,-99.99,,,-99.99,,2013-02-13 20:32:00,
2013-02-13 15:42:00,37.0,26.0,29.71,SSW,203,5.0,-999.0,64,-99.99,,,-99.99,,2013-02-13 20:42:00,
2013-02-13 15:52:00,37.0,26.0,29.71,SSW,203,5.0,-999.0,64,-99.99,,,-99.99,,2013-02-13 20:52:00,
2013-02-13 16:01:00,37.0,27.0,29.71,SSW,202,5.0,-999.0,67,-99.99,,,-99.99,,2013-02-13 21:01:00,
2013-02-13 16:11:00,37.0,27.0,29.71,SSW,202,5.0,-999.0,67,-99.99,,,-99.99,,2013-02-13 21:11:00,
2013-02-13 16:21:00,37.0,27.0,29.70,SSW,203,4.0,-999.0,67,-99.99,,,-99.99,,2013-02-13 21:21:00,
2013-02-13 16:31:00,36.0,26.0,29.70,SSW,207,3.0,-999.0,67,-99.99,,,-99.99,,2013-02-13 21:31:00,
2013-02-13 16:42:00,36.0,26.0,29.70,SSW,207,3.0,-999.0,67,-99.99,,,-99.99,,2013-02-13 21:42:00,
2013-02-13 16:52:00,36.0,26.0,29.70,SSW,207,2.0,-999.0,68,-99.99,,,-99.99,,2013-02-13 21:52:00,
2013-02-13 17:02:00,36.0,27.0,29.68,SSW,207,0.0,-999.0,70,-99.99,,,-99.99,,2013-02-13 22:02:00,
2013-02-13 17:11:00,36.0,27.0,29.68,SSW,207,0.0,-999.0,70,-99.99,,,-99.99,,2013-02-13 22:11:00,
2013-02-13 17:21:00,36.0,27.0,29.68,SSW,207,0.0,-999.0,70,-99.99,,,-99.99,,2013-02-13 22:21:00,
2013-02-13 17:32:00,36.0,27.0,29.68,SSW,207,1.0,-999.0,70,-99.99,,,-99.99,,2013-02-13 22:32:00,
2013-02-13 17:42:00,36.0,27.0,29.68,SSW,207,1.0,-999.0,70,-99.99,,,-99.99,,2013-02-13 22:42:00,
2013-02-13 17:52:00,35.0,27.0,29.68,SSW,207,0.0,-999.0,72,-99.99,,,-99.99,,2013-02-13 22:52:00,
2013-02-13 18:01:00,33.0,26.0,29.67,SSW,207,2.0,-999.0,75,-99.99,,,-99.99,,2013-02-13 23:01:00,
2013-02-13 18:11:00,33.0,26.0,29.67,SSW,207,2.0,-999.0,75,-99.99,,,-99.99,,2013-02-13 23:11:00,
2013-02-13 18:22:00,33.0,26.0,29.67,SSW,207,0.0,-999.0,76,-99.99,,,-99.99,,2013-02-13 23:22:00,
2013-02-13 18:32:00,32.0,26.0,29.67,SSW,207,2.0,-999.0,78,-99.99,,,-99.99,,2013-02-13 23:32:00,
2013-02-13 18:42:00,32.0,26.0,29.67,SSW,207,2.0,-999.0,78,-99.99,,,-99.99,,2013-02-13 23:42:00,
2013-02-13 18:52:00,32.0,26.0,29.67,SSW,207,2.0,-999.0,78,-99.99,,,-99.99,,2013-02-13 23:52:00,
2013-02-13 19:02:00,31.0,27.0,29.66,SSW,207,2.0,-999.0,84,-99.99,,,-99.99,,2013-02-14 00:02:00,
2013-02-13 19:11:00,31.0,27.0,29.66,SSW,207,2.0,-999.0,84,-99.99,,,-99.99,,2013-02-14 00:11:00,
2013-02-13 19:22:00,32.0,27.0,29.65,SSW,206,3.0,-999.0,80,-99.99,,,-99.99,,2013-02-14 00:22:00,
2013-02-13 19:32:00,32.0,27.0,29.65,SSW,206,3.0,-999.0,80,-99.99,,,-99.99,,2013-02-14 00:32:00,
2013-02-13 19:42:00,32.0,27.0,29.65,SSW,206,3.0,-999.0,80,-99.99,,,-99.99,,2013-02-14 00:42:00,
2013-02-13 19:52:00,33.0,27.0,29.65,South,181,2.0,-999.0,78,-99.99,,,-99.99,,2013-02-14 00:52:00,
2013-02-13 20:01:00,33.0,27.0,29.65,South,181,2.0,-999.0,78,-99.99,,,-99.99,,2013-02-14 01:01:00,
2013-02-13 20:11:00,33.0,27.0,29.65,South,181,2.0,-999.0,78,-99.99,,,-99.99,,2013-02-14 01:11:00,
2013-02-13 20:21:00,34.0,28.0,29.65,South,176,3.0,-999.0,78,-99.99,,,-99.99,,2013-02-14 01:21:00,
2013-02-13 20:32:00,35.0,29.0,29.64,SSE,155,3.0,-999.0,77,-99.99,,,-99.99,,2013-02-14 01:32:00,
2013-02-13 20:41:00,35.0,29.0,29.64,SSE,155,3.0,-999.0,77,-99.99,,,-99.99,,2013-02-14 01:41:00,
2013-02-13 20:51:00,35.0,29.0,29.64,SSE,155,2.0,-999.0,77,-99.99,,,-99.99,,2013-02-14 01:51:00,
2013-02-13 21:02:00,35.0,29.0,29.64,SSE,155,2.0,-999.0,77,-99.99,,,-99.99,,2013-02-14 02:02:00,
2013-02-13 21:11:00,34.0,28.0,29.63,SSE,155,3.0,-999.0,78,-99.99,,,-99.99,,2013-02-14 02:11:00,
2013-02-13 21:21:00,34.0,28.0,29.63,SSE,155,3.0,-999.0,78,-99.99,,,-99.99,,2013-02-14 02:21:00,
2013-02-13 21:32:00,35.0,29.0,29.64,ESE,120,3.0,-999.0,78,-99.99,,,-99.99,,2013-02-14 02:32:00,
2013-02-13 21:42:00,35.0,29.0,29.64,ESE,120,3.0,-999.0,78,-99.99,,,-99.99,,2013-02-14 02:42:00,
2013-02-13 21:51:00,35.0,29.0,29.64,ESE,120,3.0,-999.0,78,-99.99,,,-99.99,,2013-02-14 02:51:00,
2013-02-13 22:02:00,35.0,29.0,29.61,ENE,58,4.0,-999.0,79,-99.99,,,-99.99,,2013-02-14 03:02:00,
2013-02-13 22:12:00,35.0,30.0,29.60,NNE,20,4.0,-999.0,81,-99.99,,,-99.99,,2013-02-14 03:12:00,
2013-02-13 22:22:00,35.0,30.0,29.60,NNE,20,4.0,-999.0,81,-99.99,,,-99.99,,2013-02-14 03:22:00,
2013-02-13 22:32:00,35.0,30.0,29.59,NNE,22,5.0,-999.0,81,-99.99,,,-99.99,,2013-02-14 03:32:00,
2013-02-13 22:42:00,35.0,30.0,29.59,NNE,22,5.0,-999.0,81,-99.99,,,-99.99,,2013-02-14 03:42:00,
2013-02-13 22:51:00,35.0,30.0,29.58,NNE,27,6.0,-999.0,81,-99.99,,,-99.99,,2013-02-14 03:51:00,
2013-02-13 23:01:00,35.0,29.0,29.59,NNE,27,4.0,-999.0,80,-99.99,,,-99.99,,2013-02-14 04:01:00,
2013-02-13 23:12:00,35.0,29.0,29.59,NNE,27,4.0,-999.0,80,-99.99,,,-99.99,,2013-02-14 04:12:00,
2013-02-13 23:21:00,35.0,29.0,29.59,NNE,27,4.0,-999.0,80,-99.99,,,-99.99,,2013-02-14 04:21:00,
2013-02-13 23:32:00,35.0,29.0,29.61,NNE,23,3.0,-999.0,78,-99.99,,,-99.99,,2013-02-14 04:32:00,
2013-02-13 23:42:00,35.0,29.0,29.61,NNE,23,3.0,-999.0,78,-99.99,,,-99.99,,2013-02-14 04:42:00,
2013-02-13 23:51:00,35.0,29.0,29.61,NNE,23,3.0,-999.0,78,-99.99,,,-99.99,,2013-02-14 04:51:00,